Terminal Aerodrome Forecast
Issued by NWS

Home | Current Version | Previous Version | Text Only | Print | Product List | Glossary On
Versions: 1 2 3 4 5 6 7 8 9 10 11 12 13 14 15 16 17 18 19 20 21 22 23 24 25 26 27 28 29 30 31 32 33 34 35 36 37 38 39 40 41
000
FTUS45 KBOU 231733
TAFAPA
TAF
KAPA 231733Z 2318/2418 05006KT P6SM FEW100 SCT200
     FM232200 13012KT P6SM VCTS SCT080CB BKN200
      TEMPO 2322/2401 VRB20G35KT
     FM240300 19010KT P6SM FEW120 BKN220
     FM241500 VRB05KT P6SM SCT220=

USA.gov is the U.S. government's official web portal to all federal, state and local government web resources and services.